Aviation Digital Data Service (ADDS)

Output produced by METARs form (1846 UTC 24 October 2014)
found at http://aviationweather.gov/adds/metars/
 
KART 241735Z 2418/2518 27007KT P6SM SKC 
     FM250000 VRB03KT P6SM SKC 
     FM251000 VRB03KT P6SM BKN035 
     FM251300 21007KT P6SM BKN030 
     FM251500 22012KT P6SM BKN025 
     FM251700 22013G21KT P6SM BKN070